Portada
METAR-TAF:

METAR-TAF

Aeroports :

Umiujaq, Quebec, Canadà

latitud: 56-32N, longitud: 076-31W, altitud: 71 m

Observació

L'informe es va fer fa 1 hora i 6 minuts, a les 19:00 UTC
Vent 6 kt del Oest
Temperatura 12°C
Humitat 71%
Pressió 1015 hPa
Visibilitat: 24.1 km
Escasses núvols a una alçada de 2500 ft
Escasses núvols a una alçada de 18000 ft
Núvols disperses a una alçada de 23000 ft

METAR: CYMU 151900Z 28006KT 15SM FEW025 FEW180 SCT230 12/07 A2997 RMK SC1AC1CI3 SC TR AC TR SLP154

Hora: 16:06 (20:06 UTC)


TAF: manca

Observacions i pronòstics meteorològics de més de 4000 aeroports (METAR i TAF).

Les estacions disponibles són els punts grocs i vermells al mapa.

Posi el ratolí al punt desitjat per veure el nom de l'estació.

Feu clic per veure les observacions i els pronòstics meteorològics.

Per canviar el mapa: feu clic els botons verds amb una creu de color negre per apropar; al botó verd amb un guió per allunyar la imatge; o en les fletxes verdes per a mapes adjacents.


METAR-TAF: